Time;durP1;ratioP1;P1;durP2;ratioP2;P2;SDS_P1;SDS_P2;PMS_P1;PMS_P2;Temp;Humidity;BMP_temperature;BMP_pressure;BME280_temperature;BME280_humidity;BME280_pressure;Samples;Min_cycle;Max_cycle;Signal;HPM_P1;HPM_P2
2021/06/13 00:00:27;;;;;;;11.10;3.55;;;13.00;99.90;;;;;;4989191;28;20439;-62
2021/06/13 00:02:53;;;;;;;9.40;3.45;;;13.00;99.90;;;;;;4971052;28;20074;-60
2021/06/13 00:05:18;;;;;;;12.35;4.05;;;13.00;99.90;;;;;;4988424;28;20033;-60
2021/06/13 00:07:44;;;;;;;13.82;4.45;;;13.00;99.90;;;;;;4994382;28;20065;-63
2021/06/13 00:10:12;;;;;;;6.85;3.78;;;12.90;99.90;;;;;;4990919;28;20042;-63
2021/06/13 00:12:39;;;;;;;18.25;4.10;;;12.90;99.90;;;;;;4990235;28;20030;-62
2021/06/13 00:15:08;;;;;;;10.65;3.83;;;12.90;99.90;;;;;;4993938;28;20036;-62
2021/06/13 00:17:34;;;;;;;13.75;3.67;;;12.80;99.90;;;;;;4998171;28;20474;-61
2021/06/13 00:19:59;;;;;;;15.82;4.90;;;12.80;99.90;;;;;;4989031;28;20248;-62
2021/06/13 00:22:25;;;;;;;8.57;4.25;;;12.80;99.90;;;;;;4989304;28;20098;-62
2021/06/13 00:24:50;;;;;;;13.57;4.63;;;12.80;99.90;;;;;;4984083;28;20139;-61
2021/06/13 00:27:16;;;;;;;9.20;4.72;;;12.70;99.90;;;;;;4984944;28;20054;-62
2021/06/13 00:29:42;;;;;;;10.40;4.00;;;12.70;99.90;;;;;;4957520;28;20030;-60
2021/06/13 00:32:07;;;;;;;12.52;4.25;;;12.70;99.90;;;;;;4975512;28;20031;-62
2021/06/13 00:34:33;;;;;;;12.45;4.32;;;12.70;99.90;;;;;;4986371;28;20496;-61
2021/06/13 00:36:58;;;;;;;12.10;3.97;;;12.60;99.90;;;;;;4986533;28;20027;-61
2021/06/13 00:39:24;;;;;;;13.95;4.97;;;12.60;99.90;;;;;;4981356;28;20046;-61
2021/06/13 00:41:49;;;;;;;16.80;5.95;;;12.50;99.90;;;;;;4980124;28;20047;-61
2021/06/13 00:44:15;;;;;;;13.95;4.63;;;12.50;99.90;;;;;;4983876;28;20388;-61
2021/06/13 00:46:41;;;;;;;12.00;5.03;;;12.50;99.90;;;;;;4983241;28;20081;-61
2021/06/13 00:49:08;;;;;;;10.23;4.75;;;12.50;99.90;;;;;;4978863;28;20373;-61
2021/06/13 00:51:33;;;;;;;11.77;5.05;;;12.40;99.90;;;;;;4984050;28;20439;-61
2021/06/13 00:53:59;;;;;;;14.00;4.63;;;12.40;99.90;;;;;;4980952;28;20049;-61
2021/06/13 00:56:25;;;;;;;13.68;5.18;;;12.40;99.90;;;;;;4979450;28;20034;-61
2021/06/13 00:58:53;;;;;;;11.00;4.40;;;12.40;99.90;;;;;;4979348;28;20030;-62
2021/06/13 01:01:19;;;;;;;14.50;5.03;;;12.40;99.90;;;;;;4974320;28;20463;-61
2021/06/13 01:03:46;;;;;;;13.52;5.47;;;12.40;99.90;;;;;;4987397;28;20077;-61
2021/06/13 01:06:19;;;;;;;10.32;4.28;;;12.40;99.90;;;;;;4984877;28;20050;-62
2021/06/13 01:08:51;;;;;;;12.43;4.23;;;12.30;99.90;;;;;;4982945;28;20038;-61
2021/06/13 01:11:23;;;;;;;15.73;5.22;;;12.30;99.90;;;;;;4988458;28;20289;-63
2021/06/13 01:14:17;;;;;;;13.55;4.72;;;12.30;99.90;;;;;;4985729;28;20046;-62
2021/06/13 01:16:53;;;;;;;15.73;5.00;;;12.30;99.90;;;;;;4989430;28;20108;-62
2021/06/13 01:19:22;;;;;;;11.13;5.10;;;12.30;99.90;;;;;;4999182;28;20029;-60
2021/06/13 01:22:08;;;;;;;10.00;4.53;;;12.20;99.90;;;;;;4984997;28;20026;-60
2021/06/13 01:25:03;;;;;;;13.95;4.90;;;12.10;99.90;;;;;;4990669;28;20400;-62
2021/06/13 01:27:53;;;;;;;14.05;4.97;;;12.00;99.90;;;;;;4991440;28;20022;-62
2021/06/13 01:30:19;;;;;;;15.13;5.15;;;12.00;99.90;;;;;;4988361;28;20030;-62
2021/06/13 01:32:44;;;;;;;14.10;5.82;;;12.00;99.90;;;;;;4978210;28;20038;-62
2021/06/13 01:35:15;;;;;;;13.65;4.72;;;11.90;99.90;;;;;;5000674;28;20506;-62
2021/06/13 01:37:46;;;;;;;15.82;5.05;;;11.90;99.90;;;;;;4985626;28;20084;-62
2021/06/13 01:40:14;;;;;;;13.70;4.55;;;11.90;99.90;;;;;;4991697;28;20030;-61
2021/06/13 01:42:46;;;;;;;15.40;5.13;;;11.90;99.90;;;;;;4985420;28;20026;-61
2021/06/13 01:45:16;;;;;;;20.17;5.53;;;11.90;99.90;;;;;;4997188;28;20041;-61
2021/06/13 01:47:43;;;;;;;17.35;6.68;;;11.90;99.90;;;;;;4990696;28;20484;-62
2021/06/13 01:50:09;;;;;;;16.33;5.35;;;11.80;99.90;;;;;;4988577;28;20078;-61
2021/06/13 01:52:38;;;;;;;18.90;5.85;;;11.80;99.90;;;;;;4991852;28;20122;-62
2021/06/13 01:55:06;;;;;;;21.73;6.32;;;11.80;99.90;;;;;;4980775;28;20088;-61
2021/06/13 01:57:33;;;;;;;13.27;5.40;;;11.80;99.90;;;;;;4978718;28;20026;-61
2021/06/13 02:00:01;;;;;;;17.95;6.25;;;11.80;99.90;;;;;;4980694;28;20109;-62
2021/06/13 02:02:27;;;;;;;14.32;5.63;;;11.80;99.90;;;;;;4978412;28;20533;-62
2021/06/13 02:04:53;;;;;;;14.63;5.97;;;11.70;99.90;;;;;;4987647;28;20515;-61
2021/06/13 02:07:20;;;;;;;13.05;5.88;;;11.70;99.90;;;;;;4995718;28;20030;-62
2021/06/13 02:09:47;;;;;;;16.55;5.15;;;11.70;99.90;;;;;;4996981;28;20030;-60
2021/06/13 02:12:14;;;;;;;19.52;7.60;;;11.70;99.90;;;;;;4987830;28;20027;-62
2021/06/13 02:14:43;;;;;;;17.75;5.90;;;11.70;99.90;;;;;;5000081;28;20029;-62
2021/06/13 02:17:10;;;;;;;14.55;5.60;;;11.60;99.90;;;;;;4988927;28;20026;-61
2021/06/13 02:19:38;;;;;;;15.52;7.03;;;11.60;99.90;;;;;;4990693;28;20030;-62
2021/06/13 02:22:04;;;;;;;17.17;6.03;;;11.50;99.90;;;;;;4982304;28;20623;-61
2021/06/13 02:24:33;;;;;;;20.30;6.07;;;11.50;99.90;;;;;;4985398;28;20030;-62
2021/06/13 02:27:01;;;;;;;12.35;5.78;;;11.50;99.90;;;;;;4986401;28;20018;-61
2021/06/13 02:29:28;;;;;;;19.73;6.40;;;11.50;99.90;;;;;;4986543;28;20132;-61
2021/06/13 02:31:55;;;;;;;12.75;5.68;;;11.50;99.90;;;;;;4979924;28;20045;-61
2021/06/13 02:34:24;;;;;;;12.43;6.15;;;11.40;99.90;;;;;;4983447;28;20042;-61
2021/06/13 02:36:51;;;;;;;13.90;5.10;;;11.30;99.90;;;;;;4985579;28;20030;-62
2021/06/13 02:39:18;;;;;;;12.65;5.90;;;11.20;99.90;;;;;;4986439;28;20507;-61
2021/06/13 02:41:44;;;;;;;12.70;5.38;;;11.20;99.90;;;;;;4989367;28;20037;-62
2021/06/13 02:44:10;;;;;;;11.35;5.30;;;11.10;99.90;;;;;;4989866;28;20030;-61
2021/06/13 02:46:36;;;;;;;13.15;6.00;;;11.00;99.90;;;;;;4986551;28;20068;-62
2021/06/13 02:49:07;;;;;;;11.88;5.13;;;11.00;99.90;;;;;;4983194;28;20051;-62
2021/06/13 02:51:36;;;;;;;9.70;5.63;;;10.90;99.90;;;;;;4983437;28;20026;-59
2021/06/13 02:54:04;;;;;;;15.85;6.82;;;10.80;99.90;;;;;;4974561;28;20062;-62
2021/06/13 02:56:48;;;;;;;13.32;6.40;;;10.80;99.90;;;;;;4974026;28;20049;-61
2021/06/13 02:59:41;;;;;;;9.68;5.95;;;10.70;99.90;;;;;;4975371;28;20026;-61
2021/06/13 03:02:09;;;;;;;11.95;6.07;;;10.80;99.90;;;;;;4969533;28;20418;-61
2021/06/13 03:04:36;;;;;;;11.20;5.88;;;10.70;99.90;;;;;;4987556;28;20041;-61
2021/06/13 03:07:03;;;;;;;12.80;5.93;;;10.70;99.90;;;;;;4984098;28;20049;-61
2021/06/13 03:09:30;;;;;;;13.85;7.18;;;10.60;99.90;;;;;;4980770;28;20121;-61
2021/06/13 03:11:56;;;;;;;13.15;6.15;;;10.60;99.90;;;;;;4980065;28;20034;-62
2021/06/13 03:14:23;;;;;;;15.88;7.22;;;10.60;99.90;;;;;;4976611;28;20034;-60
2021/06/13 03:16:49;;;;;;;14.07;7.15;;;10.60;99.90;;;;;;4975029;28;20049;-61
2021/06/13 03:19:17;;;;;;;17.02;6.65;;;10.60;99.90;;;;;;4979406;28;20026;-61
2021/06/13 03:21:45;;;;;;;12.07;7.05;;;10.60;99.90;;;;;;4983426;28;20045;-61
2021/06/13 03:24:12;;;;;;;16.75;7.05;;;10.60;99.90;;;;;;4983610;28;20023;-61
2021/06/13 03:26:39;;;;;;;16.55;6.65;;;10.50;99.90;;;;;;4974222;28;20745;-61
2021/06/13 03:29:06;;;;;;;23.75;7.30;;;10.50;99.90;;;;;;4991484;28;20025;-61
2021/06/13 03:31:33;;;;;;;14.77;7.28;;;10.50;99.90;;;;;;4990871;28;20034;-60
2021/06/13 03:33:59;;;;;;;17.92;7.28;;;10.50;99.90;;;;;;4989771;28;20026;-62
2021/06/13 03:36:27;;;;;;;17.67;6.85;;;10.50;99.90;;;;;;4994453;28;20345;-61
2021/06/13 03:38:54;;;;;;;14.98;6.60;;;10.50;99.90;;;;;;4988194;28;20038;-61
2021/06/13 03:41:22;;;;;;;12.48;6.50;;;10.50;99.90;;;;;;4990125;28;20034;-62
2021/06/13 03:43:48;;;;;;;15.23;7.78;;;10.60;99.90;;;;;;4993190;28;20049;-61
2021/06/13 03:46:16;;;;;;;17.90;7.15;;;10.60;99.90;;;;;;4986577;28;20042;-62
2021/06/13 03:48:42;;;;;;;17.83;6.32;;;10.60;99.90;;;;;;4979210;28;20075;-62
2021/06/13 03:51:11;;;;;;;14.32;6.53;;;10.70;99.90;;;;;;4986846;28;20041;-60
2021/06/13 03:53:46;;;;;;;16.23;7.03;;;10.70;99.90;;;;;;4985537;28;20111;-61
2021/06/13 03:56:19;;;;;;;18.17;6.78;;;10.80;99.90;;;;;;4991152;28;20554;-62
2021/06/13 03:58:46;;;;;;;17.88;7.05;;;10.80;99.90;;;;;;4980923;28;20059;-60
2021/06/13 04:01:13;;;;;;;16.35;7.30;;;10.90;99.90;;;;;;4986573;28;20264;-62
2021/06/13 04:03:41;;;;;;;14.98;7.32;;;11.00;99.90;;;;;;4980401;28;20043;-62
2021/06/13 04:06:08;;;;;;;11.75;6.10;;;11.00;99.90;;;;;;4987334;28;21324;-61
2021/06/13 04:08:37;;;;;;;17.75;6.20;;;11.10;99.90;;;;;;4992636;28;20114;-62
2021/06/13 04:11:04;;;;;;;15.48;6.70;;;11.10;99.90;;;;;;4982768;28;20030;-61
2021/06/13 04:13:30;;;;;;;17.63;6.72;;;11.30;99.90;;;;;;4988076;28;20053;-62
2021/06/13 04:15:57;;;;;;;15.35;7.28;;;11.30;99.90;;;;;;4992069;28;20027;-62
2021/06/13 04:18:23;;;;;;;13.60;6.00;;;11.40;99.90;;;;;;4986718;28;20117;-61
2021/06/13 04:20:49;;;;;;;18.20;6.93;;;11.60;99.90;;;;;;4978078;28;20046;-62
2021/06/13 04:23:15;;;;;;;22.00;6.78;;;11.70;99.90;;;;;;4988677;28;20042;-60
2021/06/13 04:25:43;;;;;;;15.40;6.45;;;11.80;99.90;;;;;;4994445;28;20038;-62
2021/06/13 04:28:12;;;;;;;13.75;5.85;;;12.00;99.90;;;;;;4987760;28;20030;-62
2021/06/13 04:30:38;;;;;;;15.02;5.50;;;12.30;99.90;;;;;;4985988;28;20080;-60
2021/06/13 04:33:04;;;;;;;11.23;5.38;;;12.80;99.90;;;;;;4990506;28;20034;-62
2021/06/13 04:35:30;;;;;;;12.43;5.43;;;13.90;99.90;;;;;;4991312;28;20065;-61
2021/06/13 04:37:55;;;;;;;11.60;5.15;;;15.10;99.90;;;;;;4981453;28;20476;-62
2021/06/13 04:40:21;;;;;;;15.13;5.05;;;16.60;99.90;;;;;;4990681;28;20031;-63
2021/06/13 04:42:47;;;;;;;12.38;5.40;;;17.60;99.90;;;;;;4979146;28;20034;-61
2021/06/13 04:45:13;;;;;;;9.82;4.28;;;19.00;98.90;;;;;;4980987;28;20113;-61
2021/06/13 04:47:39;;;;;;;8.88;4.15;;;20.20;95.20;;;;;;4989344;28;20113;-62
2021/06/13 04:50:06;;;;;;;12.27;4.60;;;21.10;92.40;;;;;;4991066;28;20496;-62
2021/06/13 04:52:33;;;;;;;12.13;4.07;;;21.60;87.20;;;;;;4985806;28;20571;-62
2021/06/13 04:55:23;;;;;;;10.82;4.18;;;22.10;87.00;;;;;;4982216;28;20117;-61
2021/06/13 04:57:48;;;;;;;11.60;4.50;;;22.50;81.40;;;;;;4990760;28;20109;-61
2021/06/13 05:00:14;;;;;;;16.17;4.05;;;22.50;83.10;;;;;;4990805;28;20154;-60
2021/06/13 05:02:40;;;;;;;7.78;3.90;;;22.90;80.80;;;;;;4967419;28;20062;-61
2021/06/13 05:05:06;;;;;;;6.82;3.65;;;23.20;78.40;;;;;;4985145;28;20105;-61
2021/06/13 05:07:32;;;;;;;12.25;4.32;;;23.20;76.10;;;;;;4978651;28;20051;-62
2021/06/13 05:09:58;;;;;;;12.60;4.28;;;23.90;74.00;;;;;;4992876;28;20037;-62
2021/06/13 05:12:23;;;;;;;6.10;3.38;;;24.50;71.10;;;;;;4986057;28;20087;-61
2021/06/13 05:14:49;;;;;;;8.32;3.85;;;24.30;70.90;;;;;;4983840;28;20097;-62
2021/06/13 05:17:15;;;;;;;10.02;4.10;;;24.70;69.70;;;;;;4978195;28;20599;-62
2021/06/13 05:19:40;;;;;;;10.00;3.83;;;25.00;67.50;;;;;;4976998;28;20046;-62
2021/06/13 05:22:07;;;;;;;9.98;3.53;;;25.00;67.30;;;;;;4981757;28;20039;-61
2021/06/13 05:24:34;;;;;;;9.23;3.85;;;25.60;65.30;;;;;;4991215;28;20058;-62
2021/06/13 05:26:59;;;;;;;9.02;3.45;;;26.50;61.90;;;;;;4989354;28;20373;-61
2021/06/13 05:29:25;;;;;;;8.95;4.10;;;25.50;62.00;;;;;;4983055;28;20057;-62
2021/06/13 05:31:51;;;;;;;14.45;4.75;;;25.70;62.50;;;;;;4976118;28;20463;-62
2021/06/13 05:34:16;;;;;;;8.57;3.65;;;25.90;59.80;;;;;;4978557;28;20046;-62
2021/06/13 05:36:42;;;;;;;10.95;4.00;;;26.10;60.20;;;;;;4982050;28;20071;-62
2021/06/13 05:39:07;;;;;;;9.77;4.57;;;26.30;60.00;;;;;;4985216;28;20503;-62
2021/06/13 05:41:33;;;;;;;9.85;4.45;;;27.20;57.20;;;;;;4986540;28;20523;-61
2021/06/13 05:44:02;;;;;;;10.35;3.78;;;27.00;56.60;;;;;;4990192;28;20041;-60
2021/06/13 05:46:28;;;;;;;10.68;4.47;;;26.60;55.10;;;;;;4987439;28;20476;-60
2021/06/13 05:48:53;;;;;;;10.70;3.65;;;27.70;56.00;;;;;;4986127;28;20037;-62
2021/06/13 05:51:19;;;;;;;11.30;3.95;;;28.10;53.90;;;;;;4981244;28;20057;-61
2021/06/13 05:53:44;;;;;;;14.15;4.65;;;27.60;54.30;;;;;;4979784;28;20030;-62
2021/06/13 05:56:10;;;;;;;8.30;3.92;;;27.20;54.90;;;;;;4975869;28;20251;-63
2021/06/13 05:58:36;;;;;;;8.77;3.63;;;27.00;52.70;;;;;;4974546;28;20480;-63
2021/06/13 06:01:02;;;;;;;10.73;3.75;;;28.10;52.90;;;;;;4978832;28;20065;-62
2021/06/13 06:03:28;;;;;;;8.07;3.70;;;27.20;52.20;;;;;;4962259;28;20054;-63
2021/06/13 06:05:54;;;;;;;11.40;3.80;;;27.00;54.00;;;;;;4978383;28;20645;-63
2021/06/13 06:08:19;;;;;;;8.07;4.10;;;26.90;51.40;;;;;;4990113;28;20454;-62
2021/06/13 06:10:46;;;;;;;7.80;3.42;;;27.80;53.30;;;;;;4981558;28;20025;-63
2021/06/13 06:13:11;;;;;;;8.52;3.70;;;28.00;50.80;;;;;;4984057;28;20041;-63
2021/06/13 06:15:38;;;;;;;8.00;3.83;;;28.30;50.70;;;;;;4990648;28;20026;-63
2021/06/13 06:18:05;;;;;;;6.13;3.28;;;28.40;48.40;;;;;;4986546;28;20041;-62
2021/06/13 06:20:32;;;;;;;10.43;3.85;;;27.70;49.30;;;;;;4983006;28;20073;-62
2021/06/13 06:22:58;;;;;;;8.38;3.25;;;28.40;49.20;;;;;;4984690;28;20035;-62
2021/06/13 06:25:25;;;;;;;8.85;3.47;;;28.30;50.10;;;;;;4985236;28;20080;-62
2021/06/13 06:27:51;;;;;;;9.73;3.85;;;28.10;49.30;;;;;;4988422;28;20420;-63
2021/06/13 06:30:17;;;;;;;8.05;3.75;;;28.60;47.50;;;;;;4989400;28;20030;-63
2021/06/13 06:32:43;;;;;;;7.63;3.13;;;28.60;46.30;;;;;;4986520;28;20403;-63
2021/06/13 06:35:10;;;;;;;10.18;3.75;;;27.80;46.90;;;;;;4974644;28;20037;-63
2021/06/13 06:37:38;;;;;;;7.85;3.63;;;28.70;46.80;;;;;;4973616;28;20129;-62
2021/06/13 06:40:05;;;;;;;7.38;3.33;;;28.70;47.00;;;;;;4981314;28;20040;-61
2021/06/13 06:42:32;;;;;;;11.45;3.53;;;29.10;45.70;;;;;;4974571;28;20037;-62
2021/06/13 06:44:58;;;;;;;9.75;4.00;;;28.40;45.20;;;;;;4981359;28;20085;-62
2021/06/13 06:47:23;;;;;;;8.63;3.83;;;28.90;45.20;;;;;;4984055;28;20030;-62
2021/06/13 06:49:49;;;;;;;10.75;3.60;;;28.60;45.70;;;;;;4985143;28;20403;-63
2021/06/13 06:52:16;;;;;;;10.10;3.80;;;29.30;45.00;;;;;;4986346;28;20038;-62
2021/06/13 06:54:42;;;;;;;7.55;3.47;;;29.30;46.00;;;;;;4989845;28;20026;-62
2021/06/13 06:57:08;;;;;;;7.63;3.70;;;30.20;45.00;;;;;;4986824;28;20026;-62
2021/06/13 06:59:34;;;;;;;7.75;3.22;;;29.50;44.40;;;;;;4985049;28;20045;-63
2021/06/13 07:02:01;;;;;;;9.68;3.15;;;29.70;46.40;;;;;;4986862;28;20026;-63
2021/06/13 07:04:26;;;;;;;6.60;3.20;;;30.10;44.50;;;;;;4973015;28;22048;-63
2021/06/13 07:06:52;;;;;;;11.57;3.22;;;29.60;45.00;;;;;;4982463;28;20130;-63
2021/06/13 07:09:17;;;;;;;8.98;3.28;;;29.90;44.70;;;;;;4988480;28;20030;-62
2021/06/13 07:11:43;;;;;;;7.55;3.00;;;28.90;43.10;;;;;;4983916;28;20035;-63
2021/06/13 07:14:08;;;;;;;10.43;3.63;;;28.30;45.30;;;;;;4988865;28;20093;-63
2021/06/13 07:16:34;;;;;;;7.07;3.22;;;29.40;44.60;;;;;;4984998;28;20042;-62
2021/06/13 07:19:00;;;;;;;7.07;3.72;;;29.10;45.30;;;;;;4986243;28;22405;-63
2021/06/13 07:21:26;;;;;;;7.82;3.28;;;29.10;43.70;;;;;;4981048;28;20033;-63
2021/06/13 07:23:51;;;;;;;8.88;3.30;;;29.40;44.60;;;;;;4976370;28;20037;-62
2021/06/13 07:26:17;;;;;;;8.48;3.33;;;30.30;43.10;;;;;;4973695;28;20030;-62
2021/06/13 07:28:43;;;;;;;9.75;3.53;;;30.50;42.80;;;;;;4974309;28;20034;-64
2021/06/13 07:31:09;;;;;;;7.53;3.03;;;30.40;42.40;;;;;;4976262;28;20033;-62
2021/06/13 07:33:34;;;;;;;8.75;3.90;;;30.50;41.80;;;;;;4976326;28;20034;-62
2021/06/13 07:36:00;;;;;;;6.53;2.97;;;29.70;42.90;;;;;;4984481;28;20037;-63
2021/06/13 07:38:26;;;;;;;9.30;3.67;;;29.40;41.70;;;;;;4988390;28;20080;-63
2021/06/13 07:40:52;;;;;;;5.40;2.75;;;30.20;42.00;;;;;;4985602;28;20033;-63
2021/06/13 07:43:18;;;;;;;8.40;3.45;;;29.80;42.20;;;;;;4983421;28;20507;-63
2021/06/13 07:45:43;;;;;;;9.93;3.25;;;30.10;41.10;;;;;;4987140;28;20104;-63
2021/06/13 07:48:11;;;;;;;7.20;3.08;;;30.80;41.70;;;;;;4987777;28;20503;-63
2021/06/13 07:50:38;;;;;;;9.23;3.63;;;31.00;41.60;;;;;;4982695;28;20024;-63
2021/06/13 07:53:04;;;;;;;7.20;3.40;;;31.70;40.10;;;;;;4983447;28;20480;-62
2021/06/13 07:55:31;;;;;;;9.07;3.67;;;31.60;39.40;;;;;;4979598;28;20512;-62
2021/06/13 07:57:57;;;;;;;7.68;3.20;;;29.90;41.10;;;;;;4972658;28;20125;-63
2021/06/13 08:00:23;;;;;;;9.60;3.30;;;29.40;41.20;;;;;;4979747;28;20177;-63
2021/06/13 08:02:51;;;;;;;6.55;2.72;;;29.30;40.90;;;;;;4973915;28;20030;-63
2021/06/13 08:05:25;;;;;;;8.57;3.20;;;30.20;40.70;;;;;;4959275;28;20104;-63
2021/06/13 08:07:55;;;;;;;12.38;3.40;;;30.40;39.50;;;;;;4975870;28;20105;-63
2021/06/13 08:10:21;;;;;;;6.82;3.47;;;30.70;40.00;;;;;;4975457;28;20547;-62
2021/06/13 08:12:47;;;;;;;10.45;3.72;;;30.60;41.40;;;;;;4972108;28;20464;-63
2021/06/13 08:15:13;;;;;;;6.63;3.42;;;29.50;41.50;;;;;;4975753;28;20113;-62
2021/06/13 08:17:39;;;;;;;8.15;3.50;;;30.00;41.70;;;;;;4980339;28;20495;-62
2021/06/13 08:20:05;;;;;;;8.50;3.47;;;29.00;42.50;;;;;;4990729;28;20026;-63
2021/06/13 08:22:31;;;;;;;8.20;3.15;;;29.70;42.10;;;;;;4976879;28;20030;-63
2021/06/13 08:25:00;;;;;;;6.95;3.33;;;30.10;39.70;;;;;;4977710;28;20023;-63
2021/06/13 08:27:27;;;;;;;10.65;3.70;;;29.20;42.50;;;;;;4984556;28;20026;-62
2021/06/13 08:29:53;;;;;;;6.18;3.30;;;29.20;41.70;;;;;;4989291;28;20030;-63
2021/06/13 08:32:18;;;;;;;11.32;3.50;;;29.20;41.30;;;;;;4977704;28;20024;-63
2021/06/13 08:34:44;;;;;;;9.55;3.22;;;30.00;40.30;;;;;;4979124;28;20029;-63
2021/06/13 08:37:10;;;;;;;8.10;3.72;;;28.70;41.30;;;;;;4984677;28;20030;-63
2021/06/13 08:39:36;;;;;;;8.75;3.55;;;29.00;41.70;;;;;;4987593;28;20030;-63
2021/06/13 08:42:01;;;;;;;7.15;3.20;;;29.70;40.80;;;;;;4988648;28;20031;-63
2021/06/13 08:44:27;;;;;;;12.38;3.33;;;29.30;40.70;;;;;;4991251;28;20080;-64
2021/06/13 08:46:56;;;;;;;8.95;3.63;;;29.60;40.20;;;;;;4989666;28;20504;-64
2021/06/13 08:49:23;;;;;;;6.60;3.25;;;29.90;41.60;;;;;;4988401;28;20503;-63
2021/06/13 08:51:50;;;;;;;8.82;3.30;;;29.10;40.70;;;;;;4984442;28;20038;-62
2021/06/13 08:54:15;;;;;;;11.48;3.35;;;28.40;40.00;;;;;;4987178;28;20048;-63
2021/06/13 08:56:42;;;;;;;8.50;3.20;;;27.90;42.30;;;;;;4978735;28;20022;-62
2021/06/13 08:59:08;;;;;;;7.05;3.28;;;28.50;41.10;;;;;;4986675;28;20046;-63
2021/06/13 09:01:34;;;;;;;9.07;3.17;;;28.60;43.10;;;;;;4981859;28;20428;-62
2021/06/13 09:04:02;;;;;;;7.53;3.10;;;28.40;41.70;;;;;;4963609;28;20141;-63
2021/06/13 09:06:27;;;;;;;5.68;3.17;;;28.90;42.40;;;;;;4983625;28;20038;-62
2021/06/13 09:08:53;;;;;;;12.35;3.75;;;28.80;41.30;;;;;;4979368;28;20045;-63
2021/06/13 09:11:30;;;;;;;9.07;3.08;;;29.70;40.30;;;;;;4980246;28;20038;-63
2021/06/13 09:14:12;;;;;;;9.52;3.97;;;29.80;40.10;;;;;;4979946;28;20054;-63
2021/06/13 09:16:45;;;;;;;6.25;3.38;;;29.30;40.90;;;;;;4981432;28;20042;-60
2021/06/13 09:19:11;;;;;;;7.25;3.47;;;29.90;39.30;;;;;;4981304;28;20446;-61
2021/06/13 09:21:39;;;;;;;9.13;3.10;;;29.10;39.90;;;;;;4980258;28;20030;-61
2021/06/13 09:24:22;;;;;;;9.38;2.63;;;28.30;41.40;;;;;;4980947;28;20035;-62
2021/06/13 09:26:53;;;;;;;9.82;3.03;;;28.80;41.60;;;;;;4978156;28;20112;-62
2021/06/13 09:29:18;;;;;;;6.80;3.05;;;28.30;41.10;;;;;;4982609;28;20198;-61
2021/06/13 09:31:45;;;;;;;9.20;2.42;;;28.90;42.50;;;;;;4978625;28;20109;-62
2021/06/13 09:34:19;;;;;;;8.48;3.50;;;29.30;41.10;;;;;;4978864;28;20117;-62
2021/06/13 09:36:45;;;;;;;7.30;3.30;;;30.10;40.70;;;;;;4985484;28;20018;-62
2021/06/13 09:39:13;;;;;;;8.07;3.42;;;29.70;41.50;;;;;;4986616;28;20026;-62
2021/06/13 09:41:41;;;;;;;5.20;2.92;;;28.90;41.80;;;;;;4986744;28;20093;-62
2021/06/13 09:44:15;;;;;;;11.73;3.42;;;28.70;41.90;;;;;;4979263;28;20022;-60
2021/06/13 09:46:43;;;;;;;5.68;3.30;;;28.70;42.70;;;;;;4977917;28;20034;-63
2021/06/13 09:49:15;;;;;;;5.90;3.03;;;29.00;42.60;;;;;;4979926;28;20038;-62
2021/06/13 09:51:49;;;;;;;7.67;3.13;;;29.30;43.80;;;;;;4978356;28;20072;-62
2021/06/13 09:54:20;;;;;;;8.75;3.50;;;29.50;45.30;;;;;;4980131;28;20278;-63
2021/06/13 09:56:46;;;;;;;9.00;3.72;;;29.30;43.30;;;;;;4978062;28;20507;-61
2021/06/13 09:59:14;;;;;;;10.05;3.42;;;28.40;43.90;;;;;;4978953;28;20074;-63
2021/06/13 10:01:42;;;;;;;10.75;4.90;;;28.80;43.00;;;;;;4977849;28;20117;-61
2021/06/13 10:04:30;;;;;;;9.10;3.25;;;28.30;44.70;;;;;;4978387;28;20037;-62
2021/06/13 10:07:16;;;;;;;8.15;3.45;;;27.70;44.90;;;;;;4978539;28;20018;-64
2021/06/13 10:09:47;;;;;;;9.07;3.40;;;26.70;46.00;;;;;;4973016;28;20508;-61
2021/06/13 10:12:16;;;;;;;8.95;3.92;;;25.50;48.90;;;;;;4976276;28;20053;-61
2021/06/13 10:14:42;;;;;;;7.38;3.35;;;25.90;47.60;;;;;;4977059;28;20085;-63
2021/06/13 10:17:10;;;;;;;16.52;4.68;;;25.10;47.40;;;;;;4977079;28;20038;-61
2021/06/13 10:19:46;;;;;;;8.60;3.88;;;25.30;50.40;;;;;;4981552;28;20034;-60
2021/06/13 10:22:15;;;;;;;9.10;4.32;;;25.50;48.40;;;;;;4978559;28;20105;-62
2021/06/13 10:24:43;;;;;;;11.95;3.78;;;25.40;47.90;;;;;;4976590;28;20120;-62
2021/06/13 10:27:19;;;;;;;10.02;3.97;;;25.00;49.40;;;;;;4976359;28;20031;-61
2021/06/13 10:29:48;;;;;;;10.50;3.75;;;24.20;50.90;;;;;;4977437;28;20033;-61
2021/06/13 10:32:17;;;;;;;13.00;4.40;;;24.60;51.20;;;;;;4976124;28;20052;-62
2021/06/13 10:34:42;;;;;;;12.10;4.20;;;25.00;50.80;;;;;;4975915;28;20488;-61
2021/06/13 10:37:10;;;;;;;8.57;3.72;;;24.70;51.10;;;;;;4975709;28;20094;-61
2021/06/13 10:39:37;;;;;;;9.48;3.97;;;24.70;51.20;;;;;;4977624;28;20484;-61
2021/06/13 10:42:09;;;;;;;14.68;4.65;;;24.70;49.50;;;;;;4979685;28;20058;-61
2021/06/13 10:44:52;;;;;;;11.07;4.00;;;24.90;50.90;;;;;;4977322;28;20034;-62
2021/06/13 10:47:21;;;;;;;5.65;3.47;;;24.20;49.90;;;;;;4977550;28;20392;-62
2021/06/13 10:49:48;;;;;;;9.70;5.18;;;24.70;51.80;;;;;;4981102;28;20054;-63
2021/06/13 10:52:31;;;;;;;10.27;4.25;;;25.00;51.30;;;;;;4978687;28;20500;-61
2021/06/13 10:54:59;;;;;;;9.30;3.42;;;24.70;49.40;;;;;;4979165;28;20030;-62
2021/06/13 10:57:28;;;;;;;11.18;4.07;;;24.20;50.40;;;;;;4979349;28;20508;-62
2021/06/13 10:59:56;;;;;;;7.93;3.53;;;24.50;51.60;;;;;;4980321;28;20138;-61
2021/06/13 11:02:24;;;;;;;6.97;4.00;;;24.40;49.50;;;;;;4982420;28;20524;-62
2021/06/13 11:05:01;;;;;;;6.18;3.65;;;24.30;52.20;;;;;;4978124;28;20026;-62
2021/06/13 11:07:27;;;;;;;10.35;3.67;;;24.60;49.80;;;;;;4978341;28;20408;-62
2021/06/13 11:10:13;;;;;;;10.60;4.40;;;24.90;47.70;;;;;;4969463;28;20053;-62
2021/06/13 11:12:48;;;;;;;8.15;3.28;;;24.40;49.70;;;;;;4979395;28;20038;-62
2021/06/13 11:15:17;;;;;;;8.90;3.42;;;23.90;47.50;;;;;;4979591;28;20060;-61
2021/06/13 11:18:15;;;;;;;9.93;4.30;;;23.80;48.10;;;;;;4980579;28;20557;-62
2021/06/13 11:23:14;;;;;;;9.57;3.45;;;23.70;50.00;;;;;;4980826;28;20029;-61
2021/06/13 11:25:41;;;;;;;7.97;4.03;;;23.60;47.40;;;;;;4978039;28;20035;-63
2021/06/13 11:28:23;;;;;;;6.63;2.97;;;23.30;48.60;;;;;;4979108;28;20081;-62
2021/06/13 11:30:55;;;;;;;7.10;3.15;;;23.60;50.40;;;;;;4975766;28;20031;-61
2021/06/13 11:33:54;;;;;;;5.40;3.45;;;23.70;48.50;;;;;;4976215;28;20022;-62
2021/06/13 11:36:23;;;;;;;7.97;3.38;;;23.30;49.60;;;;;;4959256;28;20061;-62
2021/06/13 11:38:51;;;;;;;11.23;3.03;;;23.20;46.60;;;;;;4977164;28;20027;-62
2021/06/13 11:41:31;;;;;;;7.15;3.53;;;23.20;49.40;;;;;;4980564;28;20035;-62
2021/06/13 11:44:00;;;;;;;9.82;3.90;;;23.20;49.90;;;;;;4978441;28;20109;-62
2021/06/13 11:46:38;;;;;;;10.77;4.32;;;23.10;52.30;;;;;;4977415;28;20456;-62
2021/06/13 11:49:07;;;;;;;9.40;3.05;;;23.20;49.10;;;;;;4982026;28;20100;-62
2021/06/13 11:51:54;;;;;;;12.90;4.85;;;23.00;50.70;;;;;;4982693;28;20030;-62
2021/06/13 11:54:40;;;;;;;8.23;4.43;;;23.10;48.80;;;;;;4984518;28;20026;-64
2021/06/13 11:57:13;;;;;;;11.00;3.60;;;23.00;50.70;;;;;;4982992;28;20336;-63
2021/06/13 11:59:43;;;;;;;9.30;4.20;;;23.10;51.20;;;;;;4985720;28;20041;-62
2021/06/13 12:02:11;;;;;;;9.27;4.10;;;23.40;50.90;;;;;;4980073;28;20042;-63
2021/06/13 12:04:37;;;;;;;9.65;4.28;;;23.40;51.10;;;;;;4978139;28;20153;-62
2021/06/13 12:07:08;;;;;;;10.60;4.32;;;23.40;50.50;;;;;;4977866;28;20096;-61
2021/06/13 12:09:34;;;;;;;6.30;3.60;;;23.30;50.10;;;;;;4980769;28;20035;-63
2021/06/13 12:12:02;;;;;;;9.38;4.43;;;23.30;51.30;;;;;;4980077;28;20072;-62
2021/06/13 12:14:30;;;;;;;8.60;3.38;;;23.10;49.40;;;;;;4983418;28;20035;-62
2021/06/13 12:16:58;;;;;;;13.65;4.75;;;23.10;49.50;;;;;;4986650;28;20038;-62
2021/06/13 12:19:26;;;;;;;8.77;4.05;;;23.00;50.40;;;;;;4982135;28;20174;-62
2021/06/13 12:21:52;;;;;;;6.63;3.20;;;22.90;53.10;;;;;;4974065;28;20032;-62
2021/06/13 12:29:40;;;;;;;7.50;3.78;;;23.00;51.00;;;;;;4982522;28;20046;-63
2021/06/13 12:32:12;;;;;;;9.50;3.70;;;23.00;49.30;;;;;;5001497;28;20029;-62
2021/06/13 12:34:37;;;;;;;8.27;4.20;;;23.00;49.90;;;;;;5002403;28;20458;-61
2021/06/13 12:37:05;;;;;;;6.95;4.03;;;22.90;50.00;;;;;;5000494;28;20054;-62
2021/06/13 12:39:31;;;;;;;6.55;3.60;;;22.90;49.50;;;;;;4998018;28;20080;-62
2021/06/13 12:42:11;;;;;;;9.05;3.65;;;22.80;49.30;;;;;;4981816;28;20888;-61
2021/06/13 12:44:38;;;;;;;8.40;3.33;;;22.80;49.80;;;;;;4983318;28;20022;-62
2021/06/13 12:47:05;;;;;;;9.02;3.58;;;22.70;52.30;;;;;;4983053;28;20065;-62
2021/06/13 12:49:41;;;;;;;6.38;3.53;;;22.50;50.30;;;;;;4984000;28;20056;-62
2021/06/13 12:52:14;;;;;;;7.30;3.85;;;22.60;51.30;;;;;;4981708;28;20026;-62
2021/06/13 12:54:41;;;;;;;11.73;4.95;;;22.60;52.00;;;;;;4986632;28;20024;-62